createdAt,value
2023-05-09T00:00:45.535Z,7.47
2023-05-09T00:03:12.823Z,7.48
2023-05-09T00:05:39.784Z,7.48
2023-05-09T00:08:06.773Z,7.47
2023-05-09T00:10:33.310Z,7.45
2023-05-09T00:13:00.909Z,7.44
2023-05-09T00:15:28.851Z,7.42
2023-05-09T00:17:55.486Z,7.41
2023-05-09T00:20:22.222Z,7.40
2023-05-09T00:22:48.748Z,7.39
2023-05-09T00:25:15.608Z,7.38
2023-05-09T00:27:42.366Z,7.37
2023-05-09T00:30:09.197Z,7.36
2023-05-09T00:32:36.119Z,7.34
2023-05-09T00:35:03.122Z,7.31
2023-05-09T00:37:31.270Z,7.31
2023-05-09T00:39:57.922Z,7.22
2023-05-09T00:42:24.740Z,7.14
2023-05-09T00:44:51.363Z,7.12
2023-05-09T00:47:18.033Z,7.12
2023-05-09T00:49:44.759Z,7.13
2023-05-09T00:52:11.402Z,7.16
2023-05-09T00:54:38.135Z,7.20
2023-05-09T00:57:04.737Z,7.23
2023-05-09T00:59:31.337Z,7.19
2023-05-09T01:01:58.167Z,7.06
2023-05-09T01:04:24.878Z,7.01
2023-05-09T01:07:02.902Z,6.94
2023-05-09T01:09:43.081Z,6.76
2023-05-09T01:12:49.902Z,6.65
2023-05-09T01:15:45.971Z,6.61
2023-05-09T01:18:26.190Z,6.62
2023-05-09T01:21:03.612Z,6.66
2023-05-09T01:23:45.284Z,6.70
2023-05-09T01:26:34.880Z,6.74
2023-05-09T01:29:40.303Z,6.75
2023-05-09T01:32:15.622Z,6.57
2023-05-09T01:34:44.699Z,6.56
2023-05-09T01:37:14.649Z,6.52
2023-05-09T01:39:49.164Z,6.52
2023-05-09T01:42:18.821Z,6.55
2023-05-09T01:44:47.192Z,6.59
2023-05-09T01:47:16.496Z,6.56
2023-05-09T01:49:44.470Z,6.60
2023-05-09T01:52:16.693Z,6.51
2023-05-09T01:54:48.132Z,6.30
2023-05-09T01:57:15.479Z,6.18
2023-05-09T01:59:45.192Z,6.17
2023-05-09T02:02:12.788Z,6.16
2023-05-09T02:04:43.194Z,6.16
2023-05-09T02:07:11.788Z,6.28
2023-05-09T02:09:38.418Z,6.56
2023-05-09T02:12:05.204Z,6.52
2023-05-09T02:14:32.261Z,6.31
2023-05-09T02:17:06.937Z,6.05
2023-05-09T02:19:35.596Z,5.89
2023-05-09T02:22:04.811Z,5.87
2023-05-09T02:24:33.680Z,5.95
2023-05-09T02:27:03.247Z,6.00
2023-05-09T02:29:32.111Z,6.06
2023-05-09T02:32:01.508Z,5.87
2023-05-09T02:34:28.348Z,5.77
2023-05-09T02:36:55.825Z,5.90
2023-05-09T02:39:22.965Z,5.87
2023-05-09T02:41:49.832Z,5.80
2023-05-09T02:44:16.430Z,5.81
2023-05-09T02:46:42.941Z,5.86
2023-05-09T02:49:11.403Z,5.89
2023-05-09T02:51:43.548Z,5.92
2023-05-09T02:54:10.084Z,5.98
2023-05-09T02:56:36.668Z,6.01
2023-05-09T02:59:03.198Z,6.08
2023-05-09T03:01:29.824Z,6.21
2023-05-09T03:03:56.409Z,6.17
2023-05-09T03:06:23.606Z,6.17
2023-05-09T03:08:50.136Z,6.21
2023-05-09T03:11:17.201Z,6.21
2023-05-09T03:13:45.669Z,6.22
2023-05-09T03:16:15.085Z,6.27
2023-05-09T03:18:42.140Z,6.34
2023-05-09T03:21:09.927Z,6.45
2023-05-09T03:23:36.956Z,6.54
2023-05-09T03:26:06.049Z,6.64
2023-05-09T03:28:32.963Z,6.78
2023-05-09T03:31:01.681Z,6.86
2023-05-09T03:33:28.963Z,6.92
2023-05-09T03:35:55.597Z,6.99
2023-05-09T03:38:24.368Z,7.08
2023-05-09T03:40:51.440Z,7.15
2023-05-09T03:43:18.041Z,7.23
2023-05-09T03:45:44.728Z,7.28
2023-05-09T03:48:12.039Z,7.34
2023-05-09T03:50:43.468Z,7.46
2023-05-09T03:53:10.697Z,7.59
2023-05-09T03:55:37.593Z,7.76
2023-05-09T03:58:04.501Z,7.78
2023-05-09T04:00:31.516Z,7.15
2023-05-09T04:03:03.956Z,6.41
2023-05-09T04:05:35.606Z,6.03
2023-05-09T04:08:03.565Z,6.43
2023-05-09T04:10:32.049Z,7.00
2023-05-09T04:12:58.963Z,7.43
2023-05-09T04:15:25.679Z,7.79
2023-05-09T04:17:52.271Z,8.06
2023-05-09T04:20:19.009Z,8.31
2023-05-09T04:22:47.071Z,8.54
2023-05-09T04:25:16.119Z,8.62
2023-05-09T04:27:42.954Z,8.11
2023-05-09T04:30:10.437Z,7.56
2023-05-09T04:32:37.244Z,7.24
2023-05-09T04:35:05.056Z,7.62
2023-05-09T04:37:33.826Z,8.18
2023-05-09T04:40:01.544Z,8.51
2023-05-09T04:42:35.116Z,8.10
2023-05-09T04:45:02.071Z,7.54
2023-05-09T04:47:29.116Z,7.79
2023-05-09T04:49:55.678Z,8.39
2023-05-09T04:52:22.245Z,9.03
2023-05-09T04:54:48.932Z,9.53
2023-05-09T04:57:18.823Z,9.24
2023-05-09T04:59:50.539Z,8.51
2023-05-09T05:02:18.052Z,8.02
2023-05-09T05:04:47.623Z,7.72
2023-05-09T05:07:15.020Z,7.60
2023-05-09T05:09:43.467Z,8.07
2023-05-09T05:12:10.748Z,8.94
2023-05-09T05:14:38.333Z,9.52
2023-05-09T05:17:05.546Z,9.31
2023-05-09T05:19:32.189Z,8.95
2023-05-09T05:21:58.954Z,8.74
2023-05-09T05:24:28.052Z,8.65
2023-05-09T05:26:55.563Z,8.58
2023-05-09T05:29:22.330Z,8.56
2023-05-09T05:31:48.970Z,8.60
2023-05-09T05:34:16.783Z,8.66
2023-05-09T05:36:44.073Z,8.75
2023-05-09T05:39:10.874Z,8.84
2023-05-09T05:41:37.409Z,8.94
2023-05-09T05:44:05.082Z,9.06
2023-05-09T05:46:32.475Z,9.18
2023-05-09T05:48:59.577Z,9.31
2023-05-09T05:51:26.965Z,9.45
2023-05-09T05:53:53.494Z,9.57
2023-05-09T05:56:20.692Z,9.70
2023-05-09T05:58:47.399Z,9.85
2023-05-09T06:01:14.589Z,10.00
2023-05-09T06:03:41.231Z,10.16
2023-05-09T06:06:09.465Z,10.32
2023-05-09T06:08:36.024Z,10.48
2023-05-09T06:11:02.951Z,10.65
2023-05-09T06:13:29.550Z,10.81
2023-05-09T06:16:14.968Z,10.99
2023-05-09T06:18:48.025Z,11.20
2023-05-09T06:21:14.605Z,11.40
2023-05-09T06:23:56.869Z,11.60
2023-05-09T06:26:27.627Z,11.80
2023-05-09T06:28:54.151Z,11.97
2023-05-09T06:31:21.136Z,12.17
2023-05-09T06:33:48.542Z,12.37
2023-05-09T06:36:15.327Z,12.57
2023-05-09T06:38:41.857Z,12.77
2023-05-09T06:41:08.382Z,12.94
2023-05-09T06:43:34.910Z,13.12
2023-05-09T06:46:02.439Z,13.53
2023-05-09T06:48:28.971Z,14.62
2023-05-09T06:50:55.591Z,16.24
2023-05-09T06:53:22.608Z,17.98
2023-05-09T06:55:49.349Z,19.58
2023-05-09T06:58:16.079Z,20.91
2023-05-09T07:00:42.750Z,22.26
2023-05-09T07:03:10.577Z,23.62
2023-05-09T07:05:37.207Z,24.76
2023-05-09T07:08:04.180Z,25.07
2023-05-09T07:10:31.192Z,24.31
2023-05-09T07:12:58.106Z,23.80
2023-05-09T07:15:39.742Z,23.62
2023-05-09T07:18:08.119Z,24.35
2023-05-09T07:20:34.957Z,25.31
2023-05-09T07:23:04.092Z,26.20
2023-05-09T07:25:34.535Z,26.96
2023-05-09T07:28:01.112Z,27.58
2023-05-09T07:30:27.918Z,27.12
2023-05-09T07:32:54.562Z,26.99
2023-05-09T07:35:21.773Z,27.15
2023-05-09T07:37:48.505Z,27.56
2023-05-09T07:40:15.625Z,27.99
2023-05-09T07:42:49.915Z,28.02
2023-05-09T07:45:17.524Z,27.95
2023-05-09T07:47:45.007Z,28.36
2023-05-09T07:50:11.564Z,28.83
2023-05-09T07:52:38.243Z,28.88
2023-05-09T07:55:05.483Z,29.19
2023-05-09T07:57:32.305Z,29.49
2023-05-09T07:59:58.892Z,29.80
2023-05-09T08:02:25.720Z,29.97
2023-05-09T08:04:52.484Z,29.84
2023-05-09T08:07:19.049Z,29.56
2023-05-09T08:09:45.827Z,28.69
2023-05-09T08:12:12.735Z,28.15
2023-05-09T08:14:39.422Z,27.98
2023-05-09T08:17:06.122Z,28.47
2023-05-09T08:19:32.701Z,29.04
2023-05-09T08:21:59.507Z,29.58
2023-05-09T08:24:26.511Z,29.85
2023-05-09T08:26:53.097Z,30.06
2023-05-09T08:29:19.692Z,30.78
2023-05-09T08:31:46.365Z,30.85
2023-05-09T08:34:13.002Z,30.05
2023-05-09T08:36:41.008Z,29.61
2023-05-09T08:39:08.753Z,29.76
2023-05-09T08:41:36.242Z,29.88
2023-05-09T08:44:04.176Z,29.47
2023-05-09T08:46:41.878Z,28.10
2023-05-09T08:49:09.340Z,27.04
2023-05-09T08:51:37.147Z,26.71
2023-05-09T08:54:04.331Z,27.34
2023-05-09T08:56:31.640Z,27.99
2023-05-09T08:58:59.068Z,28.72
2023-05-09T09:01:27.024Z,29.18
2023-05-09T09:03:54.242Z,29.04
2023-05-09T09:06:23.434Z,28.82
2023-05-09T09:08:50.576Z,29.30
2023-05-09T09:11:18.677Z,29.49
2023-05-09T09:13:46.965Z,29.61
2023-05-09T09:16:20.622Z,29.70
2023-05-09T09:18:48.271Z,29.90
2023-05-09T09:21:19.308Z,29.63
2023-05-09T09:23:47.665Z,29.77
2023-05-09T09:26:14.997Z,29.48
2023-05-09T09:28:42.663Z,29.60
2023-05-09T09:31:26.292Z,29.70
2023-05-09T09:33:59.488Z,30.04
2023-05-09T09:36:28.117Z,29.70
2023-05-09T09:39:04.769Z,29.54
2023-05-09T09:41:31.866Z,29.75
2023-05-09T09:43:58.925Z,29.27
2023-05-09T09:46:26.154Z,29.25
2023-05-09T09:48:56.833Z,29.35
2023-05-09T09:51:27.652Z,29.81
2023-05-09T09:53:56.964Z,30.55
2023-05-09T09:56:45.730Z,31.00
2023-05-09T09:59:17.437Z,31.96
2023-05-09T10:02:07.840Z,32.58
2023-05-09T10:04:37.034Z,33.14
2023-05-09T10:07:06.339Z,33.81
2023-05-09T10:09:34.308Z,33.55
2023-05-09T10:12:06.484Z,32.21
2023-05-09T10:14:35.812Z,30.73
2023-05-09T10:17:05.444Z,29.94
2023-05-09T10:19:32.957Z,28.90
2023-05-09T10:22:05.315Z,27.78
2023-05-09T10:24:42.184Z,27.75
2023-05-09T10:27:13.060Z,27.79
2023-05-09T10:29:46.469Z,27.61
2023-05-09T10:32:28.071Z,27.69
2023-05-09T10:35:05.857Z,28.36
2023-05-09T10:37:33.704Z,27.55
2023-05-09T10:40:05.117Z,28.02
2023-05-09T10:42:32.116Z,28.26
2023-05-09T10:44:58.661Z,28.45
2023-05-09T10:47:29.717Z,28.63
2023-05-09T10:49:57.741Z,28.90
2023-05-09T10:52:24.333Z,29.05
2023-05-09T10:55:02.028Z,29.56
2023-05-09T10:57:30.368Z,30.12
2023-05-09T10:59:58.714Z,30.01
2023-05-09T11:02:33.969Z,30.24
2023-05-09T11:05:17.573Z,30.19
2023-05-09T11:07:44.308Z,29.57
2023-05-09T11:10:15.189Z,29.20
2023-05-09T11:12:59.500Z,28.33
2023-05-09T11:15:27.911Z,28.37
2023-05-09T11:18:11.021Z,28.07
2023-05-09T11:20:46.463Z,26.84
2023-05-09T11:23:17.548Z,26.91
2023-05-09T11:25:47.757Z,27.11
2023-05-09T11:28:28.815Z,27.56
2023-05-09T11:31:10.062Z,27.79
2023-05-09T11:33:38.125Z,27.62
2023-05-09T11:36:38.601Z,27.78
2023-05-09T11:39:05.494Z,28.06
2023-05-09T11:41:39.528Z,27.98
2023-05-09T11:44:20.547Z,27.81
2023-05-09T11:46:49.270Z,27.18
2023-05-09T11:49:17.394Z,26.58
2023-05-09T11:51:44.244Z,26.93
2023-05-09T11:54:12.399Z,27.43
2023-05-09T11:56:41.811Z,27.19
2023-05-09T11:59:10.692Z,26.71
2023-05-09T12:01:37.757Z,26.50
2023-05-09T12:04:07.367Z,26.67
2023-05-09T12:06:34.309Z,27.00
2023-05-09T12:09:00.956Z,27.48
2023-05-09T12:11:32.400Z,27.82
2023-05-09T12:13:59.345Z,28.17
2023-05-09T12:16:26.144Z,27.99
2023-05-09T12:18:53.205Z,27.93
2023-05-09T12:21:20.478Z,28.22
2023-05-09T12:23:50.688Z,28.41
2023-05-09T12:26:18.296Z,28.43
2023-05-09T12:28:45.922Z,28.43
2023-05-09T12:31:13.241Z,28.20
2023-05-09T12:33:40.607Z,28.01
2023-05-09T12:36:09.677Z,27.70
2023-05-09T12:38:37.532Z,27.09
2023-05-09T12:41:18.203Z,26.41
2023-05-09T12:43:50.220Z,26.27
2023-05-09T12:46:21.279Z,26.33
2023-05-09T12:48:49.499Z,26.00
2023-05-09T12:51:20.932Z,25.72
2023-05-09T12:53:47.785Z,25.28
2023-05-09T12:56:17.689Z,24.84
2023-05-09T12:58:51.366Z,24.34
2023-05-09T13:01:19.714Z,23.99
2023-05-09T13:03:52.099Z,23.94
2023-05-09T13:06:19.130Z,24.13
2023-05-09T13:08:59.280Z,24.35
2023-05-09T13:11:25.864Z,24.44
2023-05-09T13:13:54.539Z,24.36
2023-05-09T13:16:21.237Z,23.96
2023-05-09T13:18:48.351Z,23.51
2023-05-09T13:21:14.840Z,22.92
2023-05-09T13:23:42.336Z,22.72
2023-05-09T13:26:10.476Z,22.66
2023-05-09T13:28:37.092Z,22.63
2023-05-09T13:31:04.119Z,22.57
2023-05-09T13:33:30.848Z,22.45
2023-05-09T13:35:57.650Z,22.26
2023-05-09T13:38:24.377Z,22.11
2023-05-09T13:40:51.667Z,21.97
2023-05-09T13:43:18.370Z,21.91
2023-05-09T13:45:45.142Z,21.88
2023-05-09T13:48:11.953Z,21.76
2023-05-09T13:50:38.749Z,21.53
2023-05-09T13:53:05.563Z,21.25
2023-05-09T13:55:32.646Z,20.99
2023-05-09T13:57:59.240Z,20.82
2023-05-09T14:00:26.693Z,20.70
2023-05-09T14:02:53.660Z,20.70
2023-05-09T14:05:20.250Z,20.87
2023-05-09T14:07:47.646Z,20.99
2023-05-09T14:10:14.405Z,20.89
2023-05-09T14:12:44.156Z,20.67
2023-05-09T14:15:11.180Z,20.35
2023-05-09T14:17:37.968Z,19.95
2023-05-09T14:20:05.119Z,19.61
2023-05-09T14:22:31.738Z,19.39
2023-05-09T14:24:58.788Z,19.25
2023-05-09T14:27:26.299Z,19.16
2023-05-09T14:29:53.277Z,19.13
2023-05-09T14:32:19.835Z,19.05
2023-05-09T14:34:49.469Z,18.90
2023-05-09T14:37:16.898Z,18.75
2023-05-09T14:39:45.338Z,18.71
2023-05-09T14:42:14.032Z,18.73
2023-05-09T14:44:41.325Z,18.75
2023-05-09T14:47:09.478Z,18.73
2023-05-09T14:49:38.753Z,18.67
2023-05-09T14:52:05.927Z,18.50
2023-05-09T14:54:32.675Z,18.38
2023-05-09T14:56:59.621Z,18.20
2023-05-09T14:59:26.329Z,18.00
2023-05-09T15:01:52.987Z,17.84
2023-05-09T15:04:19.817Z,17.76
2023-05-09T15:06:46.420Z,17.70
2023-05-09T15:09:13.873Z,17.63
2023-05-09T15:11:47.507Z,17.47
2023-05-09T15:14:16.830Z,17.29
2023-05-09T15:16:44.138Z,17.12
2023-05-09T15:19:11.045Z,17.01
2023-05-09T15:21:37.695Z,16.96
2023-05-09T15:24:04.904Z,16.88
2023-05-09T15:26:32.088Z,16.82
2023-05-09T15:28:58.757Z,16.78
2023-05-09T15:31:25.955Z,16.75
2023-05-09T15:33:52.616Z,16.73
2023-05-09T15:36:19.419Z,16.73
2023-05-09T15:38:49.440Z,16.74
2023-05-09T15:41:16.766Z,16.75
2023-05-09T15:43:43.678Z,16.74
2023-05-09T15:46:10.599Z,16.70
2023-05-09T15:48:37.436Z,16.72
2023-05-09T15:51:04.265Z,16.78
2023-05-09T15:53:31.164Z,16.81
2023-05-09T15:55:57.887Z,16.77
2023-05-09T15:58:24.475Z,16.69
2023-05-09T16:00:51.198Z,16.62
2023-05-09T16:03:18.740Z,16.58
2023-05-09T16:05:45.605Z,16.56
2023-05-09T16:08:12.615Z,16.54
2023-05-09T16:10:39.220Z,16.51
2023-05-09T16:13:05.901Z,16.47
2023-05-09T16:15:32.899Z,16.39
2023-05-09T16:17:59.535Z,16.28
2023-05-09T16:20:26.168Z,16.19
2023-05-09T16:22:52.666Z,16.14
2023-05-09T16:25:19.452Z,16.12
2023-05-09T16:27:46.137Z,16.09
2023-05-09T16:30:13.742Z,16.05
2023-05-09T16:32:40.721Z,16.03
2023-05-09T16:35:07.995Z,15.98
2023-05-09T16:37:35.662Z,15.96
2023-05-09T16:40:02.855Z,15.96
2023-05-09T16:42:29.861Z,15.97
2023-05-09T16:44:57.522Z,15.97
2023-05-09T16:47:24.154Z,15.91
2023-05-09T16:49:50.959Z,15.82
2023-05-09T16:52:17.686Z,15.72
2023-05-09T16:54:44.185Z,15.67
2023-05-09T16:57:10.850Z,15.61
2023-05-09T16:59:37.794Z,15.55
2023-05-09T17:02:04.572Z,15.50
2023-05-09T17:04:31.605Z,15.47
2023-05-09T17:06:58.412Z,15.43
2023-05-09T17:09:25.397Z,15.38
2023-05-09T17:11:52.106Z,15.34
2023-05-09T17:14:18.899Z,15.30
2023-05-09T17:16:45.632Z,15.24
2023-05-09T17:19:12.420Z,15.16
2023-05-09T17:21:41.771Z,15.09
2023-05-09T17:24:09.563Z,15.03
2023-05-09T17:26:36.241Z,14.98
2023-05-09T17:29:03.802Z,14.94
2023-05-09T17:31:31.432Z,14.87
2023-05-09T17:33:58.083Z,14.77
2023-05-09T17:36:25.776Z,14.69
2023-05-09T17:38:52.919Z,14.62
2023-05-09T17:41:19.685Z,14.52
2023-05-09T17:43:46.431Z,14.41
2023-05-09T17:46:14.848Z,14.31
2023-05-09T17:48:42.109Z,14.20
2023-05-09T17:51:09.124Z,14.09
2023-05-09T17:53:35.759Z,13.97
2023-05-09T17:56:02.439Z,13.84
2023-05-09T17:58:29.939Z,13.70
2023-05-09T18:00:58.720Z,13.55
2023-05-09T18:03:29.122Z,13.40
2023-05-09T18:05:55.982Z,13.26
2023-05-09T18:08:22.644Z,13.13
2023-05-09T18:10:49.797Z,12.97
2023-05-09T18:13:17.184Z,12.82
2023-05-09T18:15:43.967Z,12.66
2023-05-09T18:18:12.904Z,12.52
2023-05-09T18:20:42.134Z,12.38
2023-05-09T18:23:08.716Z,12.25
2023-05-09T18:25:35.309Z,12.12
2023-05-09T18:28:01.842Z,12.01
2023-05-09T18:30:28.896Z,11.91
2023-05-09T18:32:59.991Z,11.80
2023-05-09T18:35:26.789Z,11.68
2023-05-09T18:37:53.777Z,11.57
2023-05-09T18:40:20.385Z,11.45
2023-05-09T18:42:47.290Z,11.35
2023-05-09T18:45:14.100Z,11.26
2023-05-09T18:47:40.740Z,11.17
2023-05-09T18:50:08.110Z,11.07
2023-05-09T18:52:35.023Z,10.97
2023-05-09T18:55:01.684Z,10.86
2023-05-09T18:57:28.342Z,10.74
2023-05-09T18:59:56.001Z,10.63
2023-05-09T19:02:23.614Z,10.54
2023-05-09T19:04:51.499Z,10.44
2023-05-09T19:07:18.516Z,10.35
2023-05-09T19:09:45.833Z,10.28
2023-05-09T19:12:12.472Z,10.21
2023-05-09T19:14:39.067Z,10.17
2023-05-09T19:17:05.981Z,10.13
2023-05-09T19:19:33.104Z,10.08
2023-05-09T19:22:01.813Z,10.03
2023-05-09T19:24:28.499Z,9.97
2023-05-09T19:26:55.359Z,9.91
2023-05-09T19:29:22.015Z,9.85
2023-05-09T19:31:48.638Z,9.80
2023-05-09T19:34:15.413Z,9.73
2023-05-09T19:36:41.988Z,9.68
2023-05-09T19:39:09.165Z,9.63
2023-05-09T19:41:35.972Z,9.56
2023-05-09T19:44:02.789Z,9.47
2023-05-09T19:46:29.883Z,9.35
2023-05-09T19:48:56.796Z,9.24
2023-05-09T19:51:23.488Z,9.14
2023-05-09T19:53:53.081Z,9.02
2023-05-09T19:56:23.243Z,8.91
2023-05-09T19:58:50.441Z,8.79
2023-05-09T20:01:19.174Z,8.67
2023-05-09T20:03:52.878Z,8.55
2023-05-09T20:06:19.740Z,8.44
2023-05-09T20:08:47.722Z,8.35
2023-05-09T20:11:14.985Z,8.26
2023-05-09T20:13:43.175Z,8.17
2023-05-09T20:16:10.046Z,8.10
2023-05-09T20:18:36.916Z,8.03
2023-05-09T20:21:04.191Z,7.97
2023-05-09T20:23:31.465Z,7.90
2023-05-09T20:25:58.358Z,7.83
2023-05-09T20:28:25.479Z,7.75
2023-05-09T20:30:52.186Z,7.67
2023-05-09T20:33:19.278Z,7.59
2023-05-09T20:35:45.983Z,7.49
2023-05-09T20:38:12.663Z,7.40
2023-05-09T20:40:40.412Z,7.32
2023-05-09T20:43:07.141Z,7.25
2023-05-09T20:45:37.499Z,7.20
2023-05-09T20:48:05.828Z,7.12
2023-05-09T20:50:32.588Z,7.04
2023-05-09T20:52:59.418Z,6.98
2023-05-09T20:55:26.018Z,6.92
2023-05-09T20:57:52.958Z,6.88
2023-05-09T21:00:21.383Z,6.84
2023-05-09T21:02:48.481Z,6.81
2023-05-09T21:05:16.723Z,6.76
2023-05-09T21:07:43.973Z,6.72
2023-05-09T21:10:12.059Z,6.69
2023-05-09T21:12:38.894Z,6.64
2023-05-09T21:15:08.575Z,6.59
2023-05-09T21:17:35.542Z,6.54
2023-05-09T21:20:04.554Z,6.51
2023-05-09T21:22:34.434Z,6.46
2023-05-09T21:25:01.251Z,6.43
2023-05-09T21:27:30.341Z,6.36
2023-05-09T21:29:57.462Z,6.30
2023-05-09T21:32:24.166Z,6.25
2023-05-09T21:34:51.089Z,6.20
2023-05-09T21:37:17.664Z,6.15
2023-05-09T21:39:45.258Z,6.12
2023-05-09T21:42:12.471Z,6.24
2023-05-09T21:44:39.056Z,6.96
2023-05-09T21:47:05.913Z,7.73
2023-05-09T21:49:32.715Z,8.18
2023-05-09T21:52:02.267Z,7.87
2023-05-09T21:54:28.917Z,7.44
2023-05-09T21:56:55.445Z,7.11
2023-05-09T21:59:22.401Z,6.86
2023-05-09T22:01:49.420Z,6.66
2023-05-09T22:04:16.298Z,6.50
2023-05-09T22:06:43.003Z,6.38
2023-05-09T22:09:10.649Z,6.28
2023-05-09T22:11:37.816Z,6.18
2023-05-09T22:14:04.584Z,6.09
2023-05-09T22:16:31.436Z,6.00
2023-05-09T22:18:58.492Z,5.91
2023-05-09T22:21:25.527Z,5.98
2023-05-09T22:23:52.210Z,6.65
2023-05-09T22:26:18.836Z,7.39
2023-05-09T22:28:45.554Z,7.86
2023-05-09T22:31:12.313Z,7.58
2023-05-09T22:33:38.834Z,7.13
2023-05-09T22:36:06.898Z,6.79
2023-05-09T22:38:33.570Z,6.53
2023-05-09T22:41:00.245Z,6.35
2023-05-09T22:43:28.928Z,6.20
2023-05-09T22:46:03.684Z,6.06
2023-05-09T22:48:30.317Z,5.94
2023-05-09T22:50:56.923Z,5.85
2023-05-09T22:53:23.687Z,5.92
2023-05-09T22:55:51.384Z,6.62
2023-05-09T22:58:18.666Z,7.38
2023-05-09T23:00:45.303Z,7.81
2023-05-09T23:03:12.015Z,7.50
2023-05-09T23:05:38.772Z,7.06
2023-05-09T23:08:05.463Z,6.71
2023-05-09T23:10:33.788Z,6.46
2023-05-09T23:13:00.476Z,6.26
2023-05-09T23:15:27.177Z,6.09
2023-05-09T23:17:53.719Z,5.93
2023-05-09T23:20:20.437Z,5.79
2023-05-09T23:22:46.996Z,5.80
2023-05-09T23:25:13.515Z,6.44
2023-05-09T23:27:40.827Z,7.16
2023-05-09T23:30:09.763Z,7.72
2023-05-09T23:32:36.859Z,7.96
2023-05-09T23:35:04.850Z,7.53
2023-05-09T23:37:32.150Z,7.02
2023-05-09T23:39:58.859Z,6.64
2023-05-09T23:42:25.492Z,6.36
2023-05-09T23:44:52.202Z,6.14
2023-05-09T23:47:18.840Z,5.96
2023-05-09T23:49:45.601Z,5.81
2023-05-09T23:52:12.210Z,5.67
2023-05-09T23:54:39.869Z,5.55
2023-05-09T23:57:06.436Z,5.58
2023-05-09T23:59:33.089Z,6.24
